sensor_id;sensor_type;location;lat;lon;timestamp;P1;durP1;ratioP1;P2;durP2;ratioP2
55067;SDS011;40965;52.368;9.712;2023-02-21T00:02:40;32.65;;;20.00;;
55067;SDS011;40965;52.368;9.712;2023-02-21T00:05:24;36.30;;;20.25;;
55067;SDS011;40965;52.368;9.712;2023-02-21T00:08:08;35.80;;;20.15;;
55067;SDS011;40965;52.368;9.712;2023-02-21T00:10:52;39.80;;;21.48;;
55067;SDS011;40965;52.368;9.712;2023-02-21T00:13:36;39.50;;;22.90;;
55067;SDS011;40965;52.368;9.712;2023-02-21T00:16:21;35.13;;;21.80;;
55067;SDS011;40965;52.368;9.712;2023-02-21T00:21:49;35.92;;;20.20;;
55067;SDS011;40965;52.368;9.712;2023-02-21T00:24:33;39.05;;;21.50;;
55067;SDS011;40965;52.368;9.712;2023-02-21T00:27:18;37.92;;;22.80;;
55067;SDS011;40965;52.368;9.712;2023-02-21T00:30:02;40.08;;;21.67;;
55067;SDS011;40965;52.368;9.712;2023-02-21T00:32:51;38.65;;;20.90;;
55067;SDS011;40965;52.368;9.712;2023-02-21T00:35:35;37.78;;;21.65;;
55067;SDS011;40965;52.368;9.712;2023-02-21T00:38:19;40.22;;;22.08;;
55067;SDS011;40965;52.368;9.712;2023-02-21T00:41:03;37.55;;;21.63;;
55067;SDS011;40965;52.368;9.712;2023-02-21T00:43:47;40.63;;;20.70;;
55067;SDS011;40965;52.368;9.712;2023-02-21T00:46:31;46.80;;;23.70;;
55067;SDS011;40965;52.368;9.712;2023-02-21T00:49:15;44.00;;;23.30;;
55067;SDS011;40965;52.368;9.712;2023-02-21T00:51:59;42.15;;;24.25;;
55067;SDS011;40965;52.368;9.712;2023-02-21T00:54:46;46.38;;;24.40;;
55067;SDS011;40965;52.368;9.712;2023-02-21T00:57:30;46.90;;;23.73;;
55067;SDS011;40965;52.368;9.712;2023-02-21T01:00:16;44.65;;;23.70;;
55067;SDS011;40965;52.368;9.712;2023-02-21T01:03:03;47.53;;;24.35;;
55067;SDS011;40965;52.368;9.712;2023-02-21T01:05:47;44.60;;;26.55;;
55067;SDS011;40965;52.368;9.712;2023-02-21T01:08:41;48.45;;;25.45;;
55067;SDS011;40965;52.368;9.712;2023-02-21T01:11:27;45.95;;;24.55;;
55067;SDS011;40965;52.368;9.712;2023-02-21T01:14:11;46.75;;;26.50;;
55067;SDS011;40965;52.368;9.712;2023-02-21T01:16:56;42.75;;;24.00;;
55067;SDS011;40965;52.368;9.712;2023-02-21T01:19:40;46.38;;;25.15;;
55067;SDS011;40965;52.368;9.712;2023-02-21T01:22:25;52.33;;;24.95;;
55067;SDS011;40965;52.368;9.712;2023-02-21T01:25:10;46.47;;;26.10;;
55067;SDS011;40965;52.368;9.712;2023-02-21T01:27:54;46.08;;;23.75;;
55067;SDS011;40965;52.368;9.712;2023-02-21T01:30:38;46.38;;;25.73;;
55067;SDS011;40965;52.368;9.712;2023-02-21T01:33:24;44.83;;;23.85;;
55067;SDS011;40965;52.368;9.712;2023-02-21T01:36:08;44.38;;;22.77;;
55067;SDS011;40965;52.368;9.712;2023-02-21T01:38:52;38.88;;;21.25;;
55067;SDS011;40965;52.368;9.712;2023-02-21T01:41:40;39.72;;;22.17;;
55067;SDS011;40965;52.368;9.712;2023-02-21T01:44:45;37.50;;;21.60;;
55067;SDS011;40965;52.368;9.712;2023-02-21T01:48:20;43.22;;;22.52;;
55067;SDS011;40965;52.368;9.712;2023-02-21T01:51:11;40.00;;;23.95;;
55067;SDS011;40965;52.368;9.712;2023-02-21T01:54:03;41.05;;;22.23;;
55067;SDS011;40965;52.368;9.712;2023-02-21T01:56:50;40.60;;;24.27;;
55067;SDS011;40965;52.368;9.712;2023-02-21T01:59:34;44.13;;;23.05;;
55067;SDS011;40965;52.368;9.712;2023-02-21T02:02:32;43.28;;;22.45;;
55067;SDS011;40965;52.368;9.712;2023-02-21T02:05:27;40.97;;;22.73;;
55067;SDS011;40965;52.368;9.712;2023-02-21T02:08:11;35.15;;;22.75;;
55067;SDS011;40965;52.368;9.712;2023-02-21T02:11:03;61.45;;;24.30;;
55067;SDS011;40965;52.368;9.712;2023-02-21T02:14:02;38.33;;;21.63;;
55067;SDS011;40965;52.368;9.712;2023-02-21T02:17:01;39.95;;;24.55;;
55067;SDS011;40965;52.368;9.712;2023-02-21T02:20:07;41.42;;;22.20;;
55067;SDS011;40965;52.368;9.712;2023-02-21T02:23:04;40.00;;;23.45;;
55067;SDS011;40965;52.368;9.712;2023-02-21T02:32:33;42.58;;;23.83;;
55067;SDS011;40965;52.368;9.712;2023-02-21T02:35:27;47.00;;;24.98;;
55067;SDS011;40965;52.368;9.712;2023-02-21T02:38:16;48.63;;;25.50;;
55067;SDS011;40965;52.368;9.712;2023-02-21T02:41:02;50.15;;;25.33;;
55067;SDS011;40965;52.368;9.712;2023-02-21T02:43:42;47.10;;;26.08;;
55067;SDS011;40965;52.368;9.712;2023-02-21T02:46:19;47.33;;;25.58;;
55067;SDS011;40965;52.368;9.712;2023-02-21T02:48:52;50.40;;;25.70;;
55067;SDS011;40965;52.368;9.712;2023-02-21T02:51:31;45.90;;;24.38;;
55067;SDS011;40965;52.368;9.712;2023-02-21T02:54:00;48.28;;;28.33;;
55067;SDS011;40965;52.368;9.712;2023-02-21T02:56:27;53.28;;;25.63;;
55067;SDS011;40965;52.368;9.712;2023-02-21T02:59:01;54.92;;;26.45;;
55067;SDS011;40965;52.368;9.712;2023-02-21T03:10:24;53.58;;;27.17;;
55067;SDS011;40965;52.368;9.712;2023-02-21T03:16:38;49.65;;;27.90;;
55067;SDS011;40965;52.368;9.712;2023-02-21T03:19:23;46.70;;;26.67;;
55067;SDS011;40965;52.368;9.712;2023-02-21T03:21:58;48.70;;;27.33;;
55067;SDS011;40965;52.368;9.712;2023-02-21T03:24:28;50.08;;;25.88;;
55067;SDS011;40965;52.368;9.712;2023-02-21T03:26:56;52.85;;;27.42;;
55067;SDS011;40965;52.368;9.712;2023-02-21T03:29:28;52.33;;;27.30;;
55067;SDS011;40965;52.368;9.712;2023-02-21T03:31:57;55.83;;;28.40;;
55067;SDS011;40965;52.368;9.712;2023-02-21T03:34:34;48.65;;;26.70;;
55067;SDS011;40965;52.368;9.712;2023-02-21T03:37:03;59.42;;;29.58;;
55067;SDS011;40965;52.368;9.712;2023-02-21T03:39:35;52.50;;;28.95;;
55067;SDS011;40965;52.368;9.712;2023-02-21T03:42:06;52.40;;;27.30;;
55067;SDS011;40965;52.368;9.712;2023-02-21T03:44:39;50.95;;;27.58;;
55067;SDS011;40965;52.368;9.712;2023-02-21T03:47:05;53.22;;;27.55;;
55067;SDS011;40965;52.368;9.712;2023-02-21T03:49:31;57.00;;;27.98;;
55067;SDS011;40965;52.368;9.712;2023-02-21T03:51:58;52.40;;;27.60;;
55067;SDS011;40965;52.368;9.712;2023-02-21T03:54:24;50.95;;;26.52;;
55067;SDS011;40965;52.368;9.712;2023-02-21T03:56:51;51.05;;;26.33;;
55067;SDS011;40965;52.368;9.712;2023-02-21T03:59:17;51.80;;;26.45;;
55067;SDS011;40965;52.368;9.712;2023-02-21T04:01:50;52.22;;;26.20;;
55067;SDS011;40965;52.368;9.712;2023-02-21T04:04:16;53.47;;;27.23;;
55067;SDS011;40965;52.368;9.712;2023-02-21T04:06:43;52.10;;;26.60;;
55067;SDS011;40965;52.368;9.712;2023-02-21T04:09:09;53.20;;;27.02;;
55067;SDS011;40965;52.368;9.712;2023-02-21T04:11:36;56.85;;;27.70;;
55067;SDS011;40965;52.368;9.712;2023-02-21T04:14:02;57.83;;;27.42;;
55067;SDS011;40965;52.368;9.712;2023-02-21T04:16:29;51.90;;;28.13;;
55067;SDS011;40965;52.368;9.712;2023-02-21T04:18:55;57.10;;;28.83;;
55067;SDS011;40965;52.368;9.712;2023-02-21T04:21:22;54.63;;;28.08;;
55067;SDS011;40965;52.368;9.712;2023-02-21T04:23:49;55.13;;;27.95;;
55067;SDS011;40965;52.368;9.712;2023-02-21T04:26:15;55.42;;;28.63;;
55067;SDS011;40965;52.368;9.712;2023-02-21T04:28:42;54.08;;;28.00;;
55067;SDS011;40965;52.368;9.712;2023-02-21T04:31:08;52.22;;;26.95;;
55067;SDS011;40965;52.368;9.712;2023-02-21T04:33:35;48.92;;;27.42;;
55067;SDS011;40965;52.368;9.712;2023-02-21T04:36:01;55.90;;;28.13;;
55067;SDS011;40965;52.368;9.712;2023-02-21T04:38:28;48.63;;;27.45;;
55067;SDS011;40965;52.368;9.712;2023-02-21T04:40:54;55.20;;;29.15;;
55067;SDS011;40965;52.368;9.712;2023-02-21T04:43:21;55.63;;;27.15;;
55067;SDS011;40965;52.368;9.712;2023-02-21T04:45:48;51.17;;;28.27;;
55067;SDS011;40965;52.368;9.712;2023-02-21T04:48:15;55.05;;;29.00;;
55067;SDS011;40965;52.368;9.712;2023-02-21T04:50:41;49.42;;;26.48;;
55067;SDS011;40965;52.368;9.712;2023-02-21T04:53:08;53.63;;;26.52;;
55067;SDS011;40965;52.368;9.712;2023-02-21T04:55:34;53.95;;;26.67;;
55067;SDS011;40965;52.368;9.712;2023-02-21T04:58:01;51.65;;;27.20;;
55067;SDS011;40965;52.368;9.712;2023-02-21T05:00:27;48.42;;;27.20;;
55067;SDS011;40965;52.368;9.712;2023-02-21T05:02:54;49.65;;;25.23;;
55067;SDS011;40965;52.368;9.712;2023-02-21T05:05:20;52.78;;;25.90;;
55067;SDS011;40965;52.368;9.712;2023-02-21T05:07:47;48.70;;;26.13;;
55067;SDS011;40965;52.368;9.712;2023-02-21T05:10:14;46.95;;;24.58;;
55067;SDS011;40965;52.368;9.712;2023-02-21T05:12:42;47.50;;;25.60;;
55067;SDS011;40965;52.368;9.712;2023-02-21T05:15:10;56.67;;;27.83;;
55067;SDS011;40965;52.368;9.712;2023-02-21T05:17:38;47.88;;;24.55;;
55067;SDS011;40965;52.368;9.712;2023-02-21T05:20:05;57.25;;;24.73;;
55067;SDS011;40965;52.368;9.712;2023-02-21T05:22:39;46.72;;;25.63;;
55067;SDS011;40965;52.368;9.712;2023-02-21T05:25:07;52.60;;;25.10;;
55067;SDS011;40965;52.368;9.712;2023-02-21T05:27:41;45.28;;;25.75;;
55067;SDS011;40965;52.368;9.712;2023-02-21T05:30:08;45.47;;;23.02;;
55067;SDS011;40965;52.368;9.712;2023-02-21T05:32:35;45.50;;;24.30;;
55067;SDS011;40965;52.368;9.712;2023-02-21T05:35:02;45.95;;;23.73;;
55067;SDS011;40965;52.368;9.712;2023-02-21T05:37:29;42.65;;;22.92;;
55067;SDS011;40965;52.368;9.712;2023-02-21T05:39:56;42.25;;;23.80;;
55067;SDS011;40965;52.368;9.712;2023-02-21T05:42:22;47.03;;;25.92;;
55067;SDS011;40965;52.368;9.712;2023-02-21T05:44:49;43.60;;;22.55;;
55067;SDS011;40965;52.368;9.712;2023-02-21T05:47:15;46.13;;;22.85;;
55067;SDS011;40965;52.368;9.712;2023-02-21T05:49:42;43.63;;;23.50;;
55067;SDS011;40965;52.368;9.712;2023-02-21T05:52:13;48.13;;;23.67;;
55067;SDS011;40965;52.368;9.712;2023-02-21T05:54:42;42.22;;;25.20;;
55067;SDS011;40965;52.368;9.712;2023-02-21T05:57:09;48.25;;;24.55;;
55067;SDS011;40965;52.368;9.712;2023-02-21T05:59:36;45.30;;;22.65;;
55067;SDS011;40965;52.368;9.712;2023-02-21T06:02:03;42.47;;;23.00;;
55067;SDS011;40965;52.368;9.712;2023-02-21T06:04:30;40.58;;;22.60;;
55067;SDS011;40965;52.368;9.712;2023-02-21T06:06:56;45.00;;;23.80;;
55067;SDS011;40965;52.368;9.712;2023-02-21T06:09:23;44.28;;;23.73;;
55067;SDS011;40965;52.368;9.712;2023-02-21T06:11:49;43.58;;;23.63;;
55067;SDS011;40965;52.368;9.712;2023-02-21T06:14:17;50.85;;;23.73;;
55067;SDS011;40965;52.368;9.712;2023-02-21T06:16:45;42.85;;;23.02;;
55067;SDS011;40965;52.368;9.712;2023-02-21T06:19:12;46.10;;;25.25;;
55067;SDS011;40965;52.368;9.712;2023-02-21T06:21:40;44.70;;;23.15;;
55067;SDS011;40965;52.368;9.712;2023-02-21T06:24:08;48.08;;;25.60;;
55067;SDS011;40965;52.368;9.712;2023-02-21T06:26:36;45.33;;;23.88;;
55067;SDS011;40965;52.368;9.712;2023-02-21T06:29:03;43.28;;;24.25;;
55067;SDS011;40965;52.368;9.712;2023-02-21T06:31:30;44.20;;;25.17;;
55067;SDS011;40965;52.368;9.712;2023-02-21T06:33:57;43.22;;;22.73;;
55067;SDS011;40965;52.368;9.712;2023-02-21T06:36:25;46.97;;;24.25;;
55067;SDS011;40965;52.368;9.712;2023-02-21T06:38:54;49.03;;;26.60;;
55067;SDS011;40965;52.368;9.712;2023-02-21T06:41:26;44.70;;;24.95;;
55067;SDS011;40965;52.368;9.712;2023-02-21T06:43:55;46.00;;;24.90;;
55067;SDS011;40965;52.368;9.712;2023-02-21T06:46:24;43.95;;;25.38;;
55067;SDS011;40965;52.368;9.712;2023-02-21T06:48:54;42.25;;;23.70;;
55067;SDS011;40965;52.368;9.712;2023-02-21T06:51:21;45.13;;;23.83;;
55067;SDS011;40965;52.368;9.712;2023-02-21T06:53:53;41.10;;;22.52;;
55067;SDS011;40965;52.368;9.712;2023-02-21T06:56:20;45.00;;;21.58;;
55067;SDS011;40965;52.368;9.712;2023-02-21T06:58:47;39.70;;;23.05;;
55067;SDS011;40965;52.368;9.712;2023-02-21T07:01:13;37.50;;;21.13;;
55067;SDS011;40965;52.368;9.712;2023-02-21T07:03:40;42.10;;;21.90;;
55067;SDS011;40965;52.368;9.712;2023-02-21T07:06:08;40.92;;;23.52;;
55067;SDS011;40965;52.368;9.712;2023-02-21T07:08:35;37.35;;;20.42;;
55067;SDS011;40965;52.368;9.712;2023-02-21T07:11:01;40.42;;;22.90;;
55067;SDS011;40965;52.368;9.712;2023-02-21T07:13:29;42.13;;;21.92;;
55067;SDS011;40965;52.368;9.712;2023-02-21T07:15:56;43.30;;;22.70;;
55067;SDS011;40965;52.368;9.712;2023-02-21T07:18:22;42.78;;;23.05;;
55067;SDS011;40965;52.368;9.712;2023-02-21T07:20:49;38.35;;;21.10;;
55067;SDS011;40965;52.368;9.712;2023-02-21T07:23:16;40.75;;;21.77;;
55067;SDS011;40965;52.368;9.712;2023-02-21T07:25:45;40.03;;;21.77;;
55067;SDS011;40965;52.368;9.712;2023-02-21T07:28:12;42.33;;;24.00;;
55067;SDS011;40965;52.368;9.712;2023-02-21T07:30:40;42.28;;;22.95;;
55067;SDS011;40965;52.368;9.712;2023-02-21T07:33:07;41.83;;;22.02;;
55067;SDS011;40965;52.368;9.712;2023-02-21T07:35:34;39.97;;;21.35;;
55067;SDS011;40965;52.368;9.712;2023-02-21T07:38:00;41.83;;;23.40;;
55067;SDS011;40965;52.368;9.712;2023-02-21T07:40:27;40.58;;;22.33;;
55067;SDS011;40965;52.368;9.712;2023-02-21T07:42:53;42.80;;;21.70;;
55067;SDS011;40965;52.368;9.712;2023-02-21T07:45:21;43.25;;;23.23;;
55067;SDS011;40965;52.368;9.712;2023-02-21T07:47:48;39.33;;;22.48;;
55067;SDS011;40965;52.368;9.712;2023-02-21T07:50:17;37.58;;;21.90;;
55067;SDS011;40965;52.368;9.712;2023-02-21T07:52:44;42.17;;;23.33;;
55067;SDS011;40965;52.368;9.712;2023-02-21T07:55:11;41.85;;;22.65;;
55067;SDS011;40965;52.368;9.712;2023-02-21T07:57:38;43.42;;;23.65;;
55067;SDS011;40965;52.368;9.712;2023-02-21T08:00:04;47.92;;;25.65;;
55067;SDS011;40965;52.368;9.712;2023-02-21T08:02:32;43.38;;;22.63;;
55067;SDS011;40965;52.368;9.712;2023-02-21T08:04:58;42.55;;;23.42;;
55067;SDS011;40965;52.368;9.712;2023-02-21T08:07:25;43.70;;;23.70;;
55067;SDS011;40965;52.368;9.712;2023-02-21T08:09:51;42.70;;;22.17;;
55067;SDS011;40965;52.368;9.712;2023-02-21T08:12:19;45.53;;;23.45;;
55067;SDS011;40965;52.368;9.712;2023-02-21T08:14:45;40.20;;;23.70;;
55067;SDS011;40965;52.368;9.712;2023-02-21T08:17:12;47.50;;;24.20;;
55067;SDS011;40965;52.368;9.712;2023-02-21T08:19:38;45.55;;;23.63;;
55067;SDS011;40965;52.368;9.712;2023-02-21T08:22:05;42.17;;;23.75;;
55067;SDS011;40965;52.368;9.712;2023-02-21T08:24:31;44.50;;;22.65;;
55067;SDS011;40965;52.368;9.712;2023-02-21T08:26:59;41.00;;;22.95;;
55067;SDS011;40965;52.368;9.712;2023-02-21T08:29:26;41.22;;;22.52;;
55067;SDS011;40965;52.368;9.712;2023-02-21T08:31:53;46.80;;;24.48;;
55067;SDS011;40965;52.368;9.712;2023-02-21T08:34:19;51.83;;;27.63;;
55067;SDS011;40965;52.368;9.712;2023-02-21T08:36:46;43.08;;;24.52;;
55067;SDS011;40965;52.368;9.712;2023-02-21T08:39:12;40.97;;;22.92;;
55067;SDS011;40965;52.368;9.712;2023-02-21T08:41:40;46.03;;;24.30;;
55067;SDS011;40965;52.368;9.712;2023-02-21T08:44:11;45.28;;;23.33;;
55067;SDS011;40965;52.368;9.712;2023-02-21T08:46:42;40.55;;;23.50;;
55067;SDS011;40965;52.368;9.712;2023-02-21T08:49:13;43.90;;;23.42;;
55067;SDS011;40965;52.368;9.712;2023-02-21T08:51:41;39.03;;;21.92;;
55067;SDS011;40965;52.368;9.712;2023-02-21T08:54:11;42.58;;;23.40;;
55067;SDS011;40965;52.368;9.712;2023-02-21T08:56:37;40.50;;;21.58;;
55067;SDS011;40965;52.368;9.712;2023-02-21T08:59:04;42.28;;;22.40;;
55067;SDS011;40965;52.368;9.712;2023-02-21T09:01:31;37.67;;;22.20;;
55067;SDS011;40965;52.368;9.712;2023-02-21T09:04:02;40.67;;;21.45;;
55067;SDS011;40965;52.368;9.712;2023-02-21T09:06:30;38.60;;;21.30;;
55067;SDS011;40965;52.368;9.712;2023-02-21T09:08:58;35.08;;;20.48;;
55067;SDS011;40965;52.368;9.712;2023-02-21T09:11:25;41.15;;;21.73;;
55067;SDS011;40965;52.368;9.712;2023-02-21T09:13:52;34.55;;;19.70;;
55067;SDS011;40965;52.368;9.712;2023-02-21T09:16:19;38.28;;;22.00;;
55067;SDS011;40965;52.368;9.712;2023-02-21T09:18:52;37.30;;;20.40;;
55067;SDS011;40965;52.368;9.712;2023-02-21T09:21:22;32.40;;;19.42;;
55067;SDS011;40965;52.368;9.712;2023-02-21T09:23:53;38.72;;;21.38;;
55067;SDS011;40965;52.368;9.712;2023-02-21T09:26:23;36.33;;;20.35;;
55067;SDS011;40965;52.368;9.712;2023-02-21T09:28:56;39.58;;;21.65;;
55067;SDS011;40965;52.368;9.712;2023-02-21T09:31:23;37.80;;;20.17;;
55067;SDS011;40965;52.368;9.712;2023-02-21T09:33:49;43.40;;;22.27;;
55067;SDS011;40965;52.368;9.712;2023-02-21T09:36:16;42.38;;;20.20;;
55067;SDS011;40965;52.368;9.712;2023-02-21T09:38:47;39.83;;;20.05;;
55067;SDS011;40965;52.368;9.712;2023-02-21T09:41:17;37.65;;;20.73;;
55067;SDS011;40965;52.368;9.712;2023-02-21T09:43:45;38.38;;;19.98;;
55067;SDS011;40965;52.368;9.712;2023-02-21T09:46:17;42.88;;;23.70;;
55067;SDS011;40965;52.368;9.712;2023-02-21T09:51:15;39.78;;;22.77;;
55067;SDS011;40965;52.368;9.712;2023-02-21T09:53:44;38.85;;;22.13;;
55067;SDS011;40965;52.368;9.712;2023-02-21T09:59:08;40.33;;;21.63;;
55067;SDS011;40965;52.368;9.712;2023-02-21T10:01:44;39.67;;;21.40;;
55067;SDS011;40965;52.368;9.712;2023-02-21T10:04:56;41.15;;;20.73;;
55067;SDS011;40965;52.368;9.712;2023-02-21T10:08:03;33.25;;;19.00;;
55067;SDS011;40965;52.368;9.712;2023-02-21T10:10:59;39.08;;;21.15;;
55067;SDS011;40965;52.368;9.712;2023-02-21T10:13:44;41.97;;;21.30;;
55067;SDS011;40965;52.368;9.712;2023-02-21T10:19:35;36.25;;;19.65;;
55067;SDS011;40965;52.368;9.712;2023-02-21T10:22:11;35.45;;;19.77;;
55067;SDS011;40965;52.368;9.712;2023-02-21T10:25:02;37.30;;;20.13;;
55067;SDS011;40965;52.368;9.712;2023-02-21T10:27:54;34.60;;;19.77;;
55067;SDS011;40965;52.368;9.712;2023-02-21T10:30:34;37.90;;;20.88;;
55067;SDS011;40965;52.368;9.712;2023-02-21T10:33:04;36.63;;;20.23;;
55067;SDS011;40965;52.368;9.712;2023-02-21T10:35:34;33.97;;;19.80;;
55067;SDS011;40965;52.368;9.712;2023-02-21T10:38:02;38.60;;;19.17;;
55067;SDS011;40965;52.368;9.712;2023-02-21T10:40:42;37.60;;;20.17;;
55067;SDS011;40965;52.368;9.712;2023-02-21T10:43:35;33.45;;;17.77;;
55067;SDS011;40965;52.368;9.712;2023-02-21T10:46:08;38.20;;;19.67;;
55067;SDS011;40965;52.368;9.712;2023-02-21T10:48:46;33.63;;;19.50;;
55067;SDS011;40965;52.368;9.712;2023-02-21T10:51:28;34.03;;;17.42;;
55067;SDS011;40965;52.368;9.712;2023-02-21T10:54:15;35.50;;;18.65;;
55067;SDS011;40965;52.368;9.712;2023-02-21T10:56:51;30.35;;;18.45;;
55067;SDS011;40965;52.368;9.712;2023-02-21T10:59:24;30.63;;;17.88;;
55067;SDS011;40965;52.368;9.712;2023-02-21T11:01:54;33.08;;;18.48;;
55067;SDS011;40965;52.368;9.712;2023-02-21T11:04:24;32.60;;;19.17;;
55067;SDS011;40965;52.368;9.712;2023-02-21T11:09:37;32.47;;;18.30;;
55067;SDS011;40965;52.368;9.712;2023-02-21T11:12:16;31.33;;;18.35;;
55067;SDS011;40965;52.368;9.712;2023-02-21T11:17:24;34.35;;;16.90;;
55067;SDS011;40965;52.368;9.712;2023-02-21T11:19:54;32.08;;;17.42;;
55067;SDS011;40965;52.368;9.712;2023-02-21T11:22:44;30.83;;;16.10;;
55067;SDS011;40965;52.368;9.712;2023-02-21T11:25:24;28.73;;;16.17;;
55067;SDS011;40965;52.368;9.712;2023-02-21T11:30:42;31.88;;;16.90;;
55067;SDS011;40965;52.368;9.712;2023-02-21T11:33:26;30.95;;;17.65;;
55067;SDS011;40965;52.368;9.712;2023-02-21T11:36:14;31.00;;;16.02;;
55067;SDS011;40965;52.368;9.712;2023-02-21T11:38:58;29.90;;;16.15;;
55067;SDS011;40965;52.368;9.712;2023-02-21T11:44:29;27.42;;;16.67;;
55067;SDS011;40965;52.368;9.712;2023-02-21T11:55:40;26.70;;;15.75;;
55067;SDS011;40965;52.368;9.712;2023-02-21T12:01:13;23.30;;;13.10;;
55067;SDS011;40965;52.368;9.712;2023-02-21T12:06:50;22.40;;;13.35;;
55067;SDS011;40965;52.368;9.712;2023-02-21T12:12:22;20.98;;;13.20;;
55067;SDS011;40965;52.368;9.712;2023-02-21T12:15:12;22.05;;;13.20;;
55067;SDS011;40965;52.368;9.712;2023-02-21T12:18:00;20.48;;;13.10;;
55067;SDS011;40965;52.368;9.712;2023-02-21T12:21:18;27.02;;;13.75;;
55067;SDS011;40965;52.368;9.712;2023-02-21T12:24:12;22.48;;;12.23;;
55067;SDS011;40965;52.368;9.712;2023-02-21T12:33:42;19.50;;;11.05;;
55067;SDS011;40965;52.368;9.712;2023-02-21T12:41:48;19.48;;;11.75;;
55067;SDS011;40965;52.368;9.712;2023-02-21T12:44:40;15.70;;;11.32;;
55067;SDS011;40965;52.368;9.712;2023-02-21T12:47:59;13.45;;;9.63;;
55067;SDS011;40965;52.368;9.712;2023-02-21T12:50:37;15.18;;;10.20;;
55067;SDS011;40965;52.368;9.712;2023-02-21T12:53:15;18.38;;;10.90;;
55067;SDS011;40965;52.368;9.712;2023-02-21T12:55:45;18.20;;;11.07;;
55067;SDS011;40965;52.368;9.712;2023-02-21T12:58:45;16.80;;;10.35;;
55067;SDS011;40965;52.368;9.712;2023-02-21T13:01:20;16.13;;;11.30;;
55067;SDS011;40965;52.368;9.712;2023-02-21T13:04:12;19.80;;;11.55;;
55067;SDS011;40965;52.368;9.712;2023-02-21T13:06:56;16.92;;;10.43;;
55067;SDS011;40965;52.368;9.712;2023-02-21T13:09:42;19.40;;;11.65;;
55067;SDS011;40965;52.368;9.712;2023-02-21T13:12:19;15.82;;;10.38;;
55067;SDS011;40965;52.368;9.712;2023-02-21T13:15:18;19.33;;;11.10;;
55067;SDS011;40965;52.368;9.712;2023-02-21T13:18:07;16.17;;;10.43;;
55067;SDS011;40965;52.368;9.712;2023-02-21T13:20:46;18.83;;;11.15;;
55067;SDS011;40965;52.368;9.712;2023-02-21T13:23:19;19.05;;;11.70;;
55067;SDS011;40965;52.368;9.712;2023-02-21T13:29:30;18.60;;;11.82;;
55067;SDS011;40965;52.368;9.712;2023-02-21T13:32:00;18.58;;;11.38;;
55067;SDS011;40965;52.368;9.712;2023-02-21T13:37:22;18.85;;;12.13;;
55067;SDS011;40965;52.368;9.712;2023-02-21T13:40:48;20.00;;;12.00;;
55067;SDS011;40965;52.368;9.712;2023-02-21T13:43:03;19.90;;;11.23;;
55067;SDS011;40965;52.368;9.712;2023-02-21T13:45:36;17.75;;;11.45;;
55067;SDS011;40965;52.368;9.712;2023-02-21T13:55:37;21.58;;;12.80;;
55067;SDS011;40965;52.368;9.712;2023-02-21T14:08:21;22.15;;;13.45;;
55067;SDS011;40965;52.368;9.712;2023-02-21T14:10:54;22.95;;;13.88;;
55067;SDS011;40965;52.368;9.712;2023-02-21T14:13:37;25.50;;;13.32;;
55067;SDS011;40965;52.368;9.712;2023-02-21T14:22:15;24.40;;;14.13;;
55067;SDS011;40965;52.368;9.712;2023-02-21T14:25:17;25.38;;;14.98;;
55067;SDS011;40965;52.368;9.712;2023-02-21T14:27:53;19.10;;;12.23;;
55067;SDS011;40965;52.368;9.712;2023-02-21T14:30:25;19.42;;;13.20;;
55067;SDS011;40965;52.368;9.712;2023-02-21T14:33:33;22.50;;;13.15;;
55067;SDS011;40965;52.368;9.712;2023-02-21T14:36:03;25.85;;;13.75;;
55067;SDS011;40965;52.368;9.712;2023-02-21T14:38:42;24.77;;;14.23;;
55067;SDS011;40965;52.368;9.712;2023-02-21T14:41:15;25.92;;;13.93;;
55067;SDS011;40965;52.368;9.712;2023-02-21T14:47:03;26.77;;;12.95;;
55067;SDS011;40965;52.368;9.712;2023-02-21T15:02:38;29.30;;;16.20;;
55067;SDS011;40965;52.368;9.712;2023-02-21T15:10:46;27.80;;;16.60;;
55067;SDS011;40965;52.368;9.712;2023-02-21T15:13:30;29.35;;;15.65;;
55067;SDS011;40965;52.368;9.712;2023-02-21T15:15:59;31.35;;;16.88;;
55067;SDS011;40965;52.368;9.712;2023-02-21T15:18:31;28.85;;;17.02;;
55067;SDS011;40965;52.368;9.712;2023-02-21T15:21:25;33.17;;;17.00;;
55067;SDS011;40965;52.368;9.712;2023-02-21T15:23:59;32.22;;;16.83;;
55067;SDS011;40965;52.368;9.712;2023-02-21T15:26:37;30.20;;;16.63;;
55067;SDS011;40965;52.368;9.712;2023-02-21T15:31:52;34.05;;;16.05;;
55067;SDS011;40965;52.368;9.712;2023-02-21T15:34:24;30.65;;;16.27;;
55067;SDS011;40965;52.368;9.712;2023-02-21T15:39:47;28.35;;;16.02;;
55067;SDS011;40965;52.368;9.712;2023-02-21T15:42:18;27.98;;;14.32;;
55067;SDS011;40965;52.368;9.712;2023-02-21T15:44:47;26.20;;;14.25;;
55067;SDS011;40965;52.368;9.712;2023-02-21T15:47:21;26.92;;;14.30;;
55067;SDS011;40965;52.368;9.712;2023-02-21T15:52:39;24.15;;;14.60;;
55067;SDS011;40965;52.368;9.712;2023-02-21T15:57:57;32.95;;;13.82;;
55067;SDS011;40965;52.368;9.712;2023-02-21T16:11:37;22.92;;;12.02;;
55067;SDS011;40965;52.368;9.712;2023-02-21T16:16:58;21.80;;;11.38;;
55067;SDS011;40965;52.368;9.712;2023-02-21T16:19:44;18.80;;;11.43;;
55067;SDS011;40965;52.368;9.712;2023-02-21T16:27:38;22.60;;;11.38;;
55067;SDS011;40965;52.368;9.712;2023-02-21T16:30:10;20.23;;;11.07;;
55067;SDS011;40965;52.368;9.712;2023-02-21T16:32:51;19.88;;;10.38;;
55067;SDS011;40965;52.368;9.712;2023-02-21T16:35:21;19.33;;;11.52;;
55067;SDS011;40965;52.368;9.712;2023-02-21T16:37:50;22.77;;;11.85;;
55067;SDS011;40965;52.368;9.712;2023-02-21T16:40:21;21.05;;;10.90;;
55067;SDS011;40965;52.368;9.712;2023-02-21T16:42:57;21.27;;;11.80;;
55067;SDS011;40965;52.368;9.712;2023-02-21T16:45:26;21.05;;;11.68;;
55067;SDS011;40965;52.368;9.712;2023-02-21T16:47:55;21.63;;;11.82;;
55067;SDS011;40965;52.368;9.712;2023-02-21T16:50:29;21.63;;;11.50;;
55067;SDS011;40965;52.368;9.712;2023-02-21T16:53:03;16.77;;;11.10;;
55067;SDS011;40965;52.368;9.712;2023-02-21T16:55:31;19.42;;;10.88;;
55067;SDS011;40965;52.368;9.712;2023-02-21T16:58:01;17.38;;;10.68;;
55067;SDS011;40965;52.368;9.712;2023-02-21T17:00:31;18.98;;;10.75;;
55067;SDS011;40965;52.368;9.712;2023-02-21T17:03:00;16.60;;;9.75;;
55067;SDS011;40965;52.368;9.712;2023-02-21T17:05:27;18.58;;;11.10;;
55067;SDS011;40965;52.368;9.712;2023-02-21T17:07:54;18.63;;;10.55;;
55067;SDS011;40965;52.368;9.712;2023-02-21T17:10:21;19.30;;;9.98;;
55067;SDS011;40965;52.368;9.712;2023-02-21T17:12:48;20.92;;;11.18;;
55067;SDS011;40965;52.368;9.712;2023-02-21T17:15:15;20.42;;;11.27;;
55067;SDS011;40965;52.368;9.712;2023-02-21T17:17:41;21.52;;;12.77;;
55067;SDS011;40965;52.368;9.712;2023-02-21T17:20:09;23.05;;;10.95;;
55067;SDS011;40965;52.368;9.712;2023-02-21T17:22:42;23.88;;;12.52;;
55067;SDS011;40965;52.368;9.712;2023-02-21T17:25:09;20.20;;;11.63;;
55067;SDS011;40965;52.368;9.712;2023-02-21T17:27:36;21.05;;;11.38;;
55067;SDS011;40965;52.368;9.712;2023-02-21T17:30:03;17.75;;;10.20;;
55067;SDS011;40965;52.368;9.712;2023-02-21T17:32:31;23.75;;;11.95;;
55067;SDS011;40965;52.368;9.712;2023-02-21T17:34:58;20.90;;;12.00;;
55067;SDS011;40965;52.368;9.712;2023-02-21T17:37:24;22.92;;;11.93;;
55067;SDS011;40965;52.368;9.712;2023-02-21T17:39:52;22.75;;;11.50;;